Time;durP1;ratioP1;P1;durP2;ratioP2;P2;SDS_P1;SDS_P2;PMS_P1;PMS_P2;Temp;Humidity;BMP_temperature;BMP_pressure;BME280_temperature;BME280_humidity;BME280_pressure;Samples;Min_cycle;Max_cycle;Signal;HPM_P1;HPM_P2
2022/09/02 00:01:21;;;;;;;;;;;;;;;10.64;100.00;99548.84;6254299;22;19938;-95
2022/09/02 00:03:46;;;;;;;;;;;;;;;10.82;100.00;99544.47;6281345;22;19931;-91
2022/09/02 00:06:12;;;;;;;;;;;;;;;10.78;100.00;99548.19;6279365;22;19918;-95
2022/09/02 00:08:38;;;;;;;;;;;;;;;10.61;100.00;99541.03;6282169;22;19953;-96
2022/09/02 00:11:04;;;;;;;;;;;;;;;10.78;100.00;99542.03;6279551;22;19915;-91
2022/09/02 03:38:13;;;;;;;;;;;;;;;10.20;100.00;99519.94;6177128;22;20408;-83
2022/09/02 03:40:39;;;;;;;;;;;;;;;10.32;100.00;99523.81;6275503;22;19915;-85
2022/09/02 03:43:04;;;;;;;;;;;;;;;10.18;100.00;99522.66;6277283;22;19922;-86
2022/09/02 03:45:30;;;;;;;;;;;;;;;10.17;100.00;99520.06;6250042;22;19988;-85
2022/09/02 03:47:55;;;;;;;;;;;;;;;10.36;100.00;99517.47;6277068;22;19951;-86
2022/09/02 03:50:23;;;;;;;;;;;;;;;10.20;100.00;99519.94;6276948;22;19911;-85
2022/09/02 03:52:48;;;;;;;;;;;;;;;10.18;100.00;99519.16;6248186;22;19922;-85
2022/09/02 03:55:14;;;;;;;;;;;;;;;10.34;100.00;99512.25;6276879;22;20246;-84
2022/09/02 03:57:39;;;;;;;;;;;;;;;10.30;100.00;99515.94;6276881;22;19911;-83
2022/09/02 04:00:06;;;;;;;;;;;;;;;10.21;100.00;99505.78;6276850;22;20048;-88
2022/09/02 04:02:32;;;;;;;;;;;;;;;10.45;100.00;99518.81;6250072;22;20315;-85
2022/09/02 04:04:57;;;;;;;;;;;;;;;10.39;100.00;99514.69;6276807;22;19954;-82
2022/09/02 04:07:22;;;;;;;;;;;;;;;10.28;100.00;99509.84;6275756;22;19911;-83
2022/09/02 04:09:48;;;;;;;;;;;;;;;10.45;100.00;99513.53;6276765;22;19965;-84
2022/09/02 04:12:13;;;;;;;;;;;;;;;10.41;100.00;99512.81;6276963;22;19911;-84
2022/09/02 04:14:40;;;;;;;;;;;;;;;10.37;100.00;99511.25;6249209;22;19954;-84
2022/09/02 04:17:06;;;;;;;;;;;;;;;10.48;100.00;99513.38;6276874;22;20315;-84
2022/09/02 04:19:31;;;;;;;;;;;;;;;10.51;100.00;99510.59;6276674;22;19925;-84
2022/09/02 04:21:56;;;;;;;;;;;;;;;10.39;100.00;99509.38;6275179;22;19922;-84
2022/09/02 04:24:22;;;;;;;;;;;;;;;10.47;100.00;99506.38;6276632;22;19911;-84
2022/09/02 04:26:47;;;;;;;;;;;;;;;10.52;100.00;99504.38;6277009;22;19950;-84
2022/09/02 04:29:12;;;;;;;;;;;;;;;10.35;100.00;99492.78;6276498;22;19959;-84
2022/09/02 04:31:37;;;;;;;;;;;;;;;10.45;100.00;99494.97;6276514;22;19911;-84
2022/09/02 04:34:03;;;;;;;;;;;;;;;10.53;100.00;99500.81;6274970;22;20216;-83
2022/09/02 04:36:28;;;;;;;;;;;;;;;10.44;100.00;99498.59;6274937;22;19911;-84
2022/09/02 04:38:54;;;;;;;;;;;;;;;10.39;100.00;99508.50;6276410;22;19915;-86
2022/09/02 04:41:24;;;;;;;;;;;;;;;10.46;100.00;99507.31;6276500;22;19941;-87
2022/09/02 04:43:51;;;;;;;;;;;;;;;10.38;100.00;99499.72;6249604;22;19986;-86
2022/09/02 08:02:38;;;;;;;;;;;;;;;10.49;100.00;99452.38;6176245;22;20296;-85
2022/09/02 08:05:13;;;;;;;;;;;;;;;10.24;100.00;99467.69;6275344;22;19990;-91
2022/09/02 08:07:38;;;;;;;;;;;;;;;10.43;100.00;99462.41;6275305;22;19918;-85
2022/09/02 08:10:06;;;;;;;;;;;;;;;10.39;100.00;99458.19;6274896;22;19990;-83
2022/09/02 08:12:31;;;;;;;;;;;;;;;10.19;100.00;99459.97;6276395;22;19918;-84
2022/09/02 08:14:57;;;;;;;;;;;;;;;10.35;100.00;99457.47;6276214;22;19947;-86
2022/09/02 08:17:24;;;;;;;;;;;;;;;10.54;100.00;99452.16;6274449;22;19926;-85
2022/09/02 08:19:49;;;;;;;;;;;;;;;10.40;100.00;99457.28;6276704;22;19981;-86
2022/09/02 08:22:15;;;;;;;;;;;;;;;10.33;100.00;99452.25;6249378;22;19945;-85
2022/09/02 08:24:40;;;;;;;;;;;;;;;10.63;100.00;99450.88;6276326;22;19912;-85
2022/09/02 08:27:05;;;;;;;;;;;;;;;10.35;100.00;99449.53;6248028;22;19917;-85
2022/09/02 08:29:31;;;;;;;;;;;;;;;10.39;100.00;99452.88;6275854;22;19994;-85
2022/09/02 08:31:56;;;;;;;;;;;;;;;10.58;100.00;99442.28;6273437;22;19911;-85
2022/09/02 08:34:21;;;;;;;;;;;;;;;10.45;100.00;99455.25;6249715;22;19922;-85
2022/09/02 08:36:47;;;;;;;;;;;;;;;10.35;100.00;99452.19;6276970;22;19915;-85
2022/09/02 08:39:12;;;;;;;;;;;;;;;10.58;100.00;99442.28;6249278;22;19918;-86
2022/09/02 08:41:50;;;;;;;;;;;;;;;10.38;100.00;99441.44;6249242;22;19922;-85
2022/09/02 08:44:19;;;;;;;;;;;;;;;10.41;100.00;99437.81;6274942;22;19915;-85
2022/09/02 08:46:45;;;;;;;;;;;;;;;10.47;100.00;99438.38;6275133;22;20370;-85
2022/09/02 08:49:24;;;;;;;;;;;;;;;10.61;100.00;99443.00;6249591;22;19911;-85
2022/09/02 08:51:51;;;;;;;;;;;;;;;10.64;100.00;99444.63;6276984;22;19911;-85
2022/09/02 08:54:34;;;;;;;;;;;;;;;10.43;100.00;99441.25;6275485;22;20240;-86
2022/09/02 08:57:00;;;;;;;;;;;;;;;10.74;100.00;99445.91;6276065;22;19915;-87
2022/09/02 08:59:26;;;;;;;;;;;;;;;10.49;100.00;99441.78;6248842;22;19919;-88
2022/09/02 09:02:08;;;;;;;;;;;;;;;10.42;100.00;99435.09;6247718;22;19919;-87
2022/09/02 09:04:39;;;;;;;;;;;;;;;10.53;100.00;99437.22;6275995;22;19911;-87
2022/09/02 09:07:07;;;;;;;;;;;;;;;10.52;100.00;99440.81;6276261;22;19918;-87
2022/09/02 09:09:51;;;;;;;;;;;;;;;10.40;100.00;99441.38;6276272;22;19957;-88
2022/09/02 09:12:23;;;;;;;;;;;;;;;10.48;100.00;99433.91;6276194;22;19938;-87
2022/09/02 09:15:06;;;;;;;;;;;;;;;10.68;100.00;99433.81;6275985;22;20323;-87
2022/09/02 09:17:38;;;;;;;;;;;;;;;10.80;100.00;99435.03;6273487;22;19916;-88
2022/09/02 09:20:06;;;;;;;;;;;;;;;10.59;100.00;99423.66;6274502;22;20334;-87
2022/09/02 09:22:36;;;;;;;;;;;;;;;10.59;100.00;99422.81;6275154;22;19915;-87
2022/09/02 09:25:02;;;;;;;;;;;;;;;10.61;100.00;99427.13;6272846;22;19915;-86
2022/09/02 09:27:27;;;;;;;;;;;;;;;10.47;100.00;99427.78;6276050;22;20319;-87
2022/09/02 09:29:52;;;;;;;;;;;;;;;10.62;100.00;99420.00;6275950;22;19915;-87
2022/09/02 09:32:21;;;;;;;;;;;;;;;10.58;100.00;99419.31;6274360;22;19915;-87
2022/09/02 09:34:55;;;;;;;;;;;;;;;10.50;100.00;99416.19;6275991;22;19915;-88
2022/09/02 09:37:27;;;;;;;;;;;;;;;10.65;100.00;99415.41;6275980;22;20354;-87
2022/09/02 09:39:59;;;;;;;;;;;;;;;10.72;100.00;99416.84;6274785;22;19916;-88
2022/09/02 09:42:36;;;;;;;;;;;;;;;10.58;100.00;99403.41;6249022;22;19911;-88
2022/09/02 09:45:21;;;;;;;;;;;;;;;10.62;100.00;99398.81;6274232;22;19915;-92
2022/09/02 09:48:06;;;;;;;;;;;;;;;10.78;100.00;99404.22;6272263;22;19926;-87
2022/09/02 09:50:31;;;;;;;;;;;;;;;10.69;100.00;99395.78;6272450;22;20343;-86
2022/09/02 09:55:48;;;;;;;;;;;;;;;10.68;100.00;99388.78;6193739;22;1869958;-87
2022/09/02 09:58:13;;;;;;;;;;;;;;;10.86;100.00;99381.69;6275743;22;20421;-87
2022/09/02 10:00:39;;;;;;;;;;;;;;;10.82;100.00;99379.28;6272448;22;19935;-87
2022/09/02 10:03:07;;;;;;;;;;;;;;;10.81;100.00;99382.88;6274290;22;19951;-88
2022/09/02 10:05:37;;;;;;;;;;;;;;;10.87;100.00;99377.25;6275775;22;19935;-88
2022/09/02 10:08:22;;;;;;;;;;;;;;;10.81;100.00;99385.50;6276349;22;19915;-87
2022/09/02 10:11:01;;;;;;;;;;;;;;;10.63;100.00;99380.19;6274422;22;19918;-90
2022/09/02 10:13:30;;;;;;;;;;;;;;;10.77;100.00;99374.22;6275739;22;19919;-87
2022/09/02 10:15:55;;;;;;;;;;;;;;;10.78;100.00;99377.72;6273879;22;20305;-86
2022/09/02 10:18:32;;;;;;;;;;;;;;;10.77;100.00;99368.91;6275526;22;19915;-87
2022/09/02 10:21:13;;;;;;;;;;;;;;;10.69;100.00;99360.47;6275674;22;20261;-87
2022/09/02 10:23:55;;;;;;;;;;;;;;;10.95;100.00;99364.47;6274045;22;19950;-88
2022/09/02 10:26:32;;;;;;;;;;;;;;;10.83;100.00;99359.78;6248154;22;19911;-88
2022/09/02 10:29:30;;;;;;;;;;;;;;;10.65;100.00;99361.56;6275445;22;19911;-87
2022/09/02 10:32:07;;;;;;;;;;;;;;;10.73;100.00;99362.91;6212997;22;20493;-84
2022/09/02 10:34:37;;;;;;;;;;;;;;;10.71;100.00;99343.56;6274284;22;19915;-86
2022/09/02 10:37:19;;;;;;;;;;;;;;;10.72;100.00;99345.31;6275533;22;20300;-84
2022/09/02 10:40:07;;;;;;;;;;;;;;;10.73;100.00;99340.84;6275394;22;19919;-85
2022/09/02 10:42:52;;;;;;;;;;;;;;;10.76;100.00;99348.66;6248674;22;19912;-85
2022/09/02 10:45:30;;;;;;;;;;;;;;;10.70;100.00;99344.50;6275276;22;20285;-84
2022/09/02 10:47:58;;;;;;;;;;;;;;;10.66;100.00;99340.31;6273866;22;19919;-85
2022/09/02 10:50:42;;;;;;;;;;;;;;;10.79;100.00;99331.75;6275229;22;19919;-85
2022/09/02 10:53:19;;;;;;;;;;;;;;;10.60;100.00;99337.13;6274039;22;20277;-86
2022/09/02 10:55:53;;;;;;;;;;;;;;;10.79;100.00;99332.59;6222696;23;19970;-86
2022/09/02 10:58:23;;;;;;;;;;;;;;;10.97;100.00;99333.44;6222144;23;19988;-85
2022/09/02 11:00:51;;;;;;;;;;;;;;;10.73;100.00;99336.41;6119037;23;19917;-85
2022/09/02 11:03:30;;;;;;;;;;;;;;;10.63;100.00;99321.06;6222436;23;19917;-87
2022/09/02 11:06:06;;;;;;;;;;;;;;;10.74;100.00;99329.31;6122043;23;20400;-84
2022/09/02 11:08:50;;;;;;;;;;;;;;;10.96;100.00;99326.44;6122068;23;19920;-90
2022/09/02 11:11:22;;;;;;;;;;;;;;;10.70;100.00;99325.09;6121990;23;19916;-85
2022/09/02 11:13:53;;;;;;;;;;;;;;;10.64;100.00;99322.75;6121832;23;20245;-87
2022/09/02 11:16:24;;;;;;;;;;;;;;;10.68;100.00;99322.53;6222332;23;19913;-85
2022/09/02 11:21:48;;;;;;;;;;;;;;;10.68;100.00;99319.88;6121915;23;20360;-88
2022/09/02 11:24:20;;;;;;;;;;;;;;;10.66;100.00;99321.75;6250199;22;19923;-87
2022/09/02 11:26:55;;;;;;;;;;;;;;;10.78;100.00;99324.72;6121926;23;19948;-86
2022/09/02 11:29:29;;;;;;;;;;;;;;;10.66;100.00;99316.47;6249872;22;19917;-88
2022/09/02 11:32:00;;;;;;;;;;;;;;;10.59;100.00;99324.78;6120375;23;19920;-87
2022/09/02 11:35:05;;;;;;;;;;;;;;;10.80;100.00;99328.13;6223646;23;19920;-88
2022/09/02 11:37:37;;;;;;;;;;;;;;;10.77;100.00;99321.22;6128756;23;20027;-85
2022/09/02 11:42:36;;;;;;;;;;;;;;;10.55;100.00;99316.16;6275619;22;19923;-86
2022/09/02 11:45:14;;;;;;;;;;;;;;;10.74;100.00;99310.78;6250176;22;20271;-88
2022/09/02 11:47:48;;;;;;;;;;;;;;;10.75;100.00;99309.81;6275795;22;20366;-86
2022/09/02 11:50:13;;;;;;;;;;;;;;;10.55;100.00;99318.78;6275669;22;19915;-85
2022/09/02 11:52:56;;;;;;;;;;;;;;;10.73;100.00;99309.91;6275314;22;20355;-84
2022/09/02 11:55:31;;;;;;;;;;;;;;;10.67;100.00;99306.72;6276523;22;19946;-84
2022/09/02 11:57:56;;;;;;;;;;;;;;;10.69;100.00;99308.34;6275239;22;19916;-85
2022/09/02 12:00:25;;;;;;;;;;;;;;;10.53;100.00;99308.28;6275577;22;19973;-85
2022/09/02 12:03:00;;;;;;;;;;;;;;;10.66;100.00;99308.50;6275267;22;19965;-85
2022/09/02 12:05:28;;;;;;;;;;;;;;;10.68;100.00;99311.09;6276689;22;19938;-88
2022/09/02 12:07:54;;;;;;;;;;;;;;;10.60;100.00;99303.53;6276630;22;20323;-87
2022/09/02 12:10:39;;;;;;;;;;;;;;;10.53;100.00;99299.47;6276846;22;20258;-88
2022/09/02 12:13:06;;;;;;;;;;;;;;;10.53;100.00;99295.03;6276842;22;19911;-87
2022/09/02 12:15:34;;;;;;;;;;;;;;;10.44;100.00;99292.00;6275946;22;19922;-87
2022/09/02 12:18:35;;;;;;;;;;;;;;;10.41;100.00;99284.19;6249285;22;19993;-87
2022/09/02 12:21:05;;;;;;;;;;;;;;;10.55;100.00;99289.66;6212976;23;19916;-87
2022/09/02 12:23:46;;;;;;;;;;;;;;;10.71;100.00;99279.13;6238998;22;20311;-87
2022/09/02 12:26:11;;;;;;;;;;;;;;;10.62;100.00;99272.50;6276551;22;19919;-87
2022/09/02 12:28:36;;;;;;;;;;;;;;;10.52;100.00;99271.25;6249369;22;19911;-87
2022/09/02 12:31:07;;;;;;;;;;;;;;;10.68;100.00;99266.88;6273465;22;19911;-87
2022/09/02 12:33:34;;;;;;;;;;;;;;;10.68;100.00;99266.88;6276464;22;19922;-87
2022/09/02 12:35:59;;;;;;;;;;;;;;;10.59;100.00;99262.06;6276600;22;19951;-89
2022/09/02 12:38:29;;;;;;;;;;;;;;;10.75;100.00;99255.97;6276398;22;19968;-87
2022/09/02 12:41:04;;;;;;;;;;;;;;;10.76;100.00;99257.69;6274128;22;19961;-87
2022/09/02 12:43:46;;;;;;;;;;;;;;;10.59;100.00;99250.63;6274896;22;20346;-87
2022/09/02 12:46:19;;;;;;;;;;;;;;;10.53;100.00;99249.16;6275084;22;19912;-87
2022/09/02 12:48:51;;;;;;;;;;;;;;;10.68;100.00;99242.19;6276489;22;19911;-87
2022/09/02 12:51:42;;;;;;;;;;;;;;;10.56;100.00;99251.63;6249584;22;20041;-87
2022/09/02 12:54:07;;;;;;;;;;;;;;;10.56;100.00;99254.25;6245965;22;19920;-87
2022/09/02 12:56:33;;;;;;;;;;;;;;;10.68;100.00;99245.69;6276400;22;19919;-87
2022/09/02 12:58:58;;;;;;;;;;;;;;;10.77;100.00;99238.19;6276298;22;19911;-86
2022/09/02 13:01:44;;;;;;;;;;;;;;;10.58;100.00;99235.66;6274603;22;19915;-87
2022/09/02 13:04:09;;;;;;;;;;;;;;;10.58;100.00;99233.00;6275571;22;19917;-88
2022/09/02 13:06:37;;;;;;;;;;;;;;;10.67;100.00;99222.81;6276194;22;19961;-87
2022/09/02 13:09:18;;;;;;;;;;;;;;;10.60;100.00;99216.09;6274705;22;19911;-88
2022/09/02 13:12:02;;;;;;;;;;;;;;;10.56;100.00;99219.81;6274725;22;19934;-87
2022/09/02 13:14:30;;;;;;;;;;;;;;;10.67;100.00;99217.50;6275825;22;19915;-87
2022/09/02 13:17:14;;;;;;;;;;;;;;;10.75;100.00;99198.53;6273001;22;20036;-87
2022/09/02 13:19:42;;;;;;;;;;;;;;;10.70;100.00;99201.41;6274469;22;19915;-87
2022/09/02 13:22:07;;;;;;;;;;;;;;;10.66;100.00;99205.19;6274429;22;19915;-88
2022/09/02 13:24:51;;;;;;;;;;;;;;;10.84;100.00;99205.16;6274813;22;20355;-87
2022/09/02 13:27:19;;;;;;;;;;;;;;;10.82;100.00;99204.38;6275631;22;20203;-89
2022/09/02 13:29:47;;;;;;;;;;;;;;;10.60;100.00;99199.34;6276039;22;19911;-87
2022/09/02 13:32:18;;;;;;;;;;;;;;;10.50;100.00;99198.97;6274383;22;19939;-87
2022/09/02 13:34:45;;;;;;;;;;;;;;;10.60;100.00;99189.59;6275903;22;19915;-87
2022/09/02 13:37:25;;;;;;;;;;;;;;;10.57;100.00;99187.09;6276305;22;19926;-87
2022/09/02 13:39:51;;;;;;;;;;;;;;;10.58;100.00;99198.56;6275842;22;20319;-87
2022/09/02 13:42:17;;;;;;;;;;;;;;;10.53;100.00;99196.16;6243747;22;19921;-87
2022/09/02 13:44:42;;;;;;;;;;;;;;;10.64;100.00;99198.25;6193270;23;19913;-87
2022/09/02 13:47:15;;;;;;;;;;;;;;;10.57;100.00;99192.41;6191382;23;19924;-87
2022/09/02 13:49:41;;;;;;;;;;;;;;;10.53;100.00;99190.88;6092084;23;19917;-87
2022/09/02 13:52:11;;;;;;;;;;;;;;;10.48;100.00;99190.22;6217843;23;20244;-87
2022/09/02 13:54:44;;;;;;;;;;;;;;;10.58;100.00;99196.78;6091915;23;19914;-90
2022/09/02 13:57:11;;;;;;;;;;;;;;;10.42;100.00;99193.19;6092096;23;19913;-89
2022/09/02 13:59:38;;;;;;;;;;;;;;;10.46;100.00;99198.25;6092059;23;19941;-85
2022/09/02 14:02:17;;;;;;;;;;;;;;;10.43;100.00;99187.81;6090580;23;20290;-84
2022/09/02 14:04:42;;;;;;;;;;;;;;;10.36;100.00;99186.44;6091749;23;19910;-84
2022/09/02 14:07:08;;;;;;;;;;;;;;;10.52;100.00;99186.50;6192863;23;20036;-85
2022/09/02 14:09:34;;;;;;;;;;;;;;;10.48;100.00;99174.34;6091894;23;19913;-85
2022/09/02 14:11:59;;;;;;;;;;;;;;;10.43;100.00;99186.97;6192716;23;19918;-84
2022/09/02 14:14:25;;;;;;;;;;;;;;;10.44;100.00;99178.09;6091898;23;19920;-84
2022/09/02 14:16:51;;;;;;;;;;;;;;;10.64;100.00;99183.22;6090465;23;19913;-85
2022/09/02 14:19:16;;;;;;;;;;;;;;;10.46;100.00;99178.88;6217682;23;19991;-85
2022/09/02 14:21:51;;;;;;;;;;;;;;;10.44;100.00;99178.09;6217976;23;20004;-84
2022/09/02 14:24:20;;;;;;;;;;;;;;;10.50;100.00;99167.19;6218284;23;19920;-85
2022/09/02 14:26:46;;;;;;;;;;;;;;;10.52;100.00;99167.97;6192507;23;19917;-84
2022/09/02 14:29:16;;;;;;;;;;;;;;;10.44;100.00;99165.72;6192354;23;19913;-85
2022/09/02 14:31:41;;;;;;;;;;;;;;;10.45;100.00;99155.97;6190728;23;19917;-84
2022/09/02 14:34:25;;;;;;;;;;;;;;;10.36;100.00;99147.56;6091811;23;20036;-85
2022/09/02 14:36:51;;;;;;;;;;;;;;;10.30;100.00;99153.13;6218372;23;20260;-85
2022/09/02 14:39:17;;;;;;;;;;;;;;;10.51;100.00;99145.94;6192703;23;19914;-85
2022/09/02 14:41:47;;;;;;;;;;;;;;;10.43;100.00;99147.25;6219012;22;19915;-88
2022/09/02 14:44:25;;;;;;;;;;;;;;;10.21;100.00;99147.47;6275959;22;19937;-85
2022/09/02 14:46:52;;;;;;;;;;;;;;;10.33;100.00;99144.22;6274395;22;19911;-85
2022/09/02 14:49:20;;;;;;;;;;;;;;;10.54;100.00;99145.72;6277584;22;19911;-85
2022/09/02 14:51:47;;;;;;;;;;;;;;;10.25;100.00;99141.09;6277308;22;19916;-85
2022/09/02 14:54:32;;;;;;;;;;;;;;;10.26;100.00;99148.97;6277568;22;19994;-85
2022/09/02 14:56:57;;;;;;;;;;;;;;;10.42;100.00;99141.09;6250156;22;19918;-85
2022/09/02 14:59:22;;;;;;;;;;;;;;;10.34;100.00;99143.31;6277888;22;19986;-85
2022/09/02 15:01:50;;;;;;;;;;;;;;;10.25;100.00;99147.22;6275683;22;19911;-85
2022/09/02 15:04:15;;;;;;;;;;;;;;;10.52;100.00;99149.41;6277363;22;19970;-85
2022/09/02 15:06:41;;;;;;;;;;;;;;;10.46;100.00;99155.03;6275752;22;19974;-85
2022/09/02 15:09:06;;;;;;;;;;;;;;;10.26;100.00;99146.31;6277338;22;20336;-86
2022/09/02 15:11:32;;;;;;;;;;;;;;;10.59;100.00;99147.28;6277244;22;19915;-85
2022/09/02 15:13:57;;;;;;;;;;;;;;;10.42;100.00;99138.47;6250524;22;19989;-85
2022/09/02 15:16:23;;;;;;;;;;;;;;;10.46;100.00;99139.16;6274013;22;19919;-85
2022/09/02 15:18:48;;;;;;;;;;;;;;;10.45;100.00;99137.41;6275654;22;19973;-87
2022/09/02 15:21:14;;;;;;;;;;;;;;;10.50;100.00;99141.56;6250252;22;19919;-88
2022/09/02 15:23:40;;;;;;;;;;;;;;;10.33;100.00;99139.78;6277485;22;19915;-88
2022/09/02 15:26:07;;;;;;;;;;;;;;;10.35;100.00;99143.22;6276135;22;19915;-86
2022/09/02 15:28:33;;;;;;;;;;;;;;;10.47;100.00;99138.22;6277078;22;19913;-86
2022/09/02 15:31:01;;;;;;;;;;;;;;;10.33;100.00;99133.63;6275485;22;20258;-90
2022/09/02 15:33:27;;;;;;;;;;;;;;;10.29;100.00;99137.34;6248603;22;19947;-88
2022/09/02 15:36:17;;;;;;;;;;;;;;;10.44;100.00;99141.03;6276458;22;19915;-93
2022/09/02 15:38:43;;;;;;;;;;;;;;;10.42;100.00;99135.81;6275052;22;20338;-89
2022/09/02 15:41:09;;;;;;;;;;;;;;;10.29;100.00;99138.22;6248733;22;19997;-87
2022/09/02 15:43:35;;;;;;;;;;;;;;;10.55;100.00;99133.38;6276028;22;20066;-88
2022/09/02 15:46:02;;;;;;;;;;;;;;;10.46;100.00;99139.16;6273084;22;19942;-86
2022/09/02 15:48:41;;;;;;;;;;;;;;;10.27;100.00;99134.75;6250226;22;19911;-86
2022/09/02 15:51:10;;;;;;;;;;;;;;;10.36;100.00;99134.31;6249551;22;19946;-85
2022/09/02 15:53:35;;;;;;;;;;;;;;;10.56;100.00;99132.41;6277409;22;19915;-85
2022/09/02 15:56:01;;;;;;;;;;;;;;;10.42;100.00;99138.47;6275310;22;19911;-85
2022/09/02 15:58:26;;;;;;;;;;;;;;;10.48;100.00;99131.97;6248930;22;20246;-85
2022/09/02 16:00:51;;;;;;;;;;;;;;;10.52;100.00;99122.94;6275307;22;19957;-84
2022/09/02 16:03:17;;;;;;;;;;;;;;;10.45;100.00;99130.34;6248627;22;19915;-84
2022/09/02 16:05:42;;;;;;;;;;;;;;;10.45;100.00;99126.81;6275322;22;19907;-85
2022/09/02 16:08:07;;;;;;;;;;;;;;;10.51;100.00;99123.84;6249890;22;19961;-86
2022/09/02 16:11:11;;;;;;;;;;;;;;;10.46;100.00;99117.97;6274167;22;20224;-86
2022/09/02 16:13:37;;;;;;;;;;;;;;;10.41;100.00;99120.84;6246030;22;20231;-87
2022/09/02 16:16:03;;;;;;;;;;;;;;;10.44;100.00;99112.75;6247957;22;19970;-88
2022/09/02 16:18:28;;;;;;;;;;;;;;;10.62;100.00;99112.69;6250008;22;19911;-87
2022/09/02 16:20:59;;;;;;;;;;;;;;;10.43;100.00;99108.38;6277070;22;20315;-87
2022/09/02 16:23:25;;;;;;;;;;;;;;;10.46;100.00;99107.38;6249663;22;19911;-88
2022/09/02 16:26:08;;;;;;;;;;;;;;;10.46;100.00;99112.66;6274502;22;19920;-87
2022/09/02 16:30:59;;;;;;;;;;;;;;;10.52;100.00;99117.63;6273870;22;19925;-86
2022/09/02 16:33:36;;;;;;;;;;;;;;;10.65;100.00;99116.03;6249125;22;19922;-86
2022/09/02 16:36:03;;;;;;;;;;;;;;;10.72;100.00;99109.47;6248834;22;19915;-85
2022/09/02 16:38:28;;;;;;;;;;;;;;;10.49;100.00;99112.50;6277707;22;19918;-85
2022/09/02 16:41:02;;;;;;;;;;;;;;;10.59;100.00;99113.69;6247697;22;19915;-87
2022/09/02 16:43:29;;;;;;;;;;;;;;;10.62;100.00;99112.69;6249650;22;19918;-87
2022/09/02 16:46:01;;;;;;;;;;;;;;;10.45;100.00;99105.63;6274913;22;19915;-87
2022/09/02 16:51:10;;;;;;;;;;;;;;;10.60;100.00;99102.19;6276679;22;20293;-89
2022/09/02 16:56:39;;;;;;;;;;;;;;;10.51;100.00;99100.00;6276844;22;20007;-88
2022/09/02 16:59:05;;;;;;;;;;;;;;;10.61;100.00;99098.59;6249311;22;20327;-86
2022/09/02 17:01:40;;;;;;;;;;;;;;;10.60;100.00;99104.84;6246696;22;19922;-86
2022/09/02 17:04:06;;;;;;;;;;;;;;;10.54;100.00;99103.34;6249194;22;19911;-87
2022/09/02 17:06:50;;;;;;;;;;;;;;;10.53;100.00;99100.81;6274126;22;19915;-91
2022/09/02 17:11:45;;;;;;;;;;;;;;;10.53;100.00;99103.47;6270659;22;19923;-89
2022/09/02 17:14:12;;;;;;;;;;;;;;;10.48;100.00;99097.53;6248120;22;19922;-87
2022/09/02 17:16:39;;;;;;;;;;;;;;;10.59;100.00;99095.16;6246961;22;19915;-86
2022/09/02 17:19:19;;;;;;;;;;;;;;;10.66;100.00;99093.91;6248099;22;19956;-88
2022/09/02 17:22:06;;;;;;;;;;;;;;;10.51;100.00;99092.94;6276152;22;19918;-93
2022/09/02 17:24:32;;;;;;;;;;;;;;;10.45;100.00;99089.75;6274081;22;19915;-87
2022/09/02 17:26:59;;;;;;;;;;;;;;;10.56;100.00;99086.53;6275378;22;19916;-86
2022/09/02 17:29:26;;;;;;;;;;;;;;;10.52;100.00;99080.56;6248374;22;19919;-89
2022/09/02 17:31:55;;;;;;;;;;;;;;;10.42;100.00;99084.63;6271362;22;19961;-87
2022/09/02 17:34:39;;;;;;;;;;;;;;;;;;;;;
2022/09/02 17:37:04;;;;;;;;;;;;;;;10.59;100.00;99089.00;6273077;22;20291;-86
2022/09/02 17:39:30;;;;;;;;;;;;;;;10.49;100.00;99086.84;6274641;22;19935;-87
2022/09/02 17:41:58;;;;;;;;;;;;;;;10.52;100.00;99080.56;6274646;22;19919;-85
2022/09/02 17:44:34;;;;;;;;;;;;;;;10.58;100.00;99084.66;6273869;22;19912;-86
2022/09/02 17:46:59;;;;;;;;;;;;;;;10.43;100.00;99083.69;6273076;22;19919;-84
2022/09/02 17:49:25;;;;;;;;;;;;;;;10.43;100.00;99081.03;6275702;22;20414;-86
2022/09/02 17:51:58;;;;;;;;;;;;;;;10.59;100.00;99083.72;6274804;22;19918;-87
2022/09/02 17:57:43;;;;;;;;;;;;;;;10.54;100.00;99073.38;6181653;23;19920;-86
2022/09/02 18:00:10;;;;;;;;;;;;;;;10.54;100.00;99076.00;6180235;23;19952;-86
2022/09/02 18:02:57;;;;;;;;;;;;;;;12.24;100.00;99082.25;6179775;23;20325;-86
2022/09/02 18:05:35;;;;;;;;;;;;;;;13.88;100.00;99067.38;6188631;22;19915;-87
2022/09/02 18:08:24;;;;;;;;;;;;;;;13.06;100.00;99083.38;6275412;22;19915;-85
2022/09/02 18:10:51;;;;;;;;;;;;;;;12.54;100.00;99083.06;6274487;22;19941;-84
2022/09/02 18:13:20;;;;;;;;;;;;;;;13.20;100.00;99079.81;6272846;22;19965;-83
2022/09/02 18:15:48;;;;;;;;;;;;;;;12.44;100.00;99084.56;6272832;22;20243;-83
2022/09/02 18:18:15;;;;;;;;;;;;;;;12.27;100.00;99082.97;6273803;22;19911;-85
2022/09/02 18:20:42;;;;;;;;;;;;;;;11.97;100.00;99083.00;6273252;22;20076;-83
2022/09/02 18:23:14;;;;;;;;;;;;;;;11.70;100.00;99078.34;6273551;22;19985;-81
2022/09/02 18:26:01;;;;;;;;;;;;;;;11.95;100.00;99079.56;6273820;22;20378;-84
2022/09/02 18:28:44;;;;;;;;;;;;;;;12.66;100.00;99070.78;6273562;22;19918;-84
2022/09/02 18:31:29;;;;;;;;;;;;;;;11.92;100.00;99085.94;6271325;22;19989;-85
2022/09/02 18:34:04;;;;;;;;;;;;;;;11.67;100.00;99085.66;6274192;22;19923;-84
2022/09/02 18:36:52;;;;;;;;;;;;;;;11.55;100.00;99093.38;6274625;22;19915;-84
2022/09/02 18:39:52;;;;;;;;;;;;;;;11.63;100.00;99085.81;6275318;22;20447;-83
2022/09/02 18:42:30;;;;;;;;;;;;;;;11.67;100.00;99085.66;6150436;23;20408;-85
2022/09/02 18:45:12;;;;;;;;;;;;;;;11.56;100.00;99088.91;6258405;22;19969;-83
2022/09/02 18:47:42;;;;;;;;;;;;;;;11.38;100.00;99086.38;6271498;22;19919;-84
2022/09/02 18:50:08;;;;;;;;;;;;;;;11.33;100.00;99092.88;6272978;22;19974;-85
2022/09/02 18:52:35;;;;;;;;;;;;;;;11.56;100.00;99094.22;6270825;22;19915;-86
2022/09/02 18:55:09;;;;;;;;;;;;;;;11.45;100.00;99098.38;6272307;22;19915;-85
2022/09/02 18:57:57;;;;;;;;;;;;;;;11.34;100.00;99095.44;6273416;22;19980;-84
2022/09/02 19:00:23;;;;;;;;;;;;;;;11.36;100.00;99092.69;6256680;22;19918;-86
2022/09/02 19:03:01;;;;;;;;;;;;;;;11.54;100.00;99096.13;6272134;22;20303;-85
2022/09/02 19:05:35;;;;;;;;;;;;;;;11.42;100.00;99097.66;6272507;22;19915;-83
2022/09/02 19:11:19;;;;;;;;;;;;;;;11.45;100.00;99101.00;6150707;23;19920;-87
2022/09/02 19:13:48;;;;;;;;;;;;;;;11.56;100.00;99099.53;6151144;23;19917;-86
2022/09/02 19:16:18;;;;;;;;;;;;;;;13.27;100.00;99092.63;6210586;22;19922;-85
2022/09/02 19:18:49;;;;;;;;;;;;;;;11.99;100.00;99100.53;6273644;22;19969;-86
2022/09/02 19:21:33;;;;;;;;;;;;;;;11.36;100.00;99096.22;6247976;22;20242;-89
2022/09/02 19:24:07;;;;;;;;;;;;;;;11.34;100.00;99099.91;6274296;22;19911;-86
2022/09/02 19:26:32;;;;;;;;;;;;;;;11.38;100.00;99093.50;6250136;22;20299;-89
2022/09/02 19:28:58;;;;;;;;;;;;;;;11.14;100.00;99106.34;6276017;22;19957;-88
2022/09/02 19:31:29;;;;;;;;;;;;;;;11.02;100.00;99095.47;6274271;22;19961;-87
2022/09/02 19:33:56;;;;;;;;;;;;;;;11.27;100.00;99102.03;6277381;22;19915;-91
2022/09/02 19:36:25;;;;;;;;;;;;;;;11.11;100.00;99098.56;6249331;22;19922;-83
2022/09/02 19:39:02;;;;;;;;;;;;;;;10.94;100.00;99107.44;6276689;22;19990;-87
2022/09/02 19:41:30;;;;;;;;;;;;;;;10.99;100.00;99100.97;6275122;22;19915;-88
2022/09/02 19:43:56;;;;;;;;;;;;;;;11.04;100.00;99098.91;6249515;22;19919;-88
2022/09/02 19:46:22;;;;;;;;;;;;;;;10.92;100.00;99098.72;6248377;22;19922;-88
2022/09/02 19:48:58;;;;;;;;;;;;;;;10.97;100.00;99097.50;6274298;22;19916;-88
2022/09/02 19:51:25;;;;;;;;;;;;;;;11.15;100.00;99095.63;6248006;22;20329;-87
2022/09/02 19:53:51;;;;;;;;;;;;;;;11.01;100.00;99096.41;6276846;22;19918;-87
2022/09/02 19:56:19;;;;;;;;;;;;;;;10.96;100.00;99101.13;6249276;22;19915;-86
2022/09/02 19:58:47;;;;;;;;;;;;;;;11.16;100.00;99096.50;6275535;22;19978;-90
2022/09/02 20:01:21;;;;;;;;;;;;;;;11.11;100.00;99103.88;6274659;22;19915;-88
2022/09/02 20:03:46;;;;;;;;;;;;;;;11.04;100.00;99098.91;6276237;22;19911;-84